createdAt,value
2023-05-10T00:01:29.821Z,-63
2023-05-10T00:06:31.264Z,-62
2023-05-10T00:11:32.510Z,-62
2023-05-10T00:16:33.720Z,-63
2023-05-10T00:21:34.957Z,-62
2023-05-10T00:26:36.241Z,-62
2023-05-10T00:31:37.487Z,-63
2023-05-10T00:36:39.076Z,-62
2023-05-10T00:41:40.325Z,-62
2023-05-10T00:46:41.545Z,-62
2023-05-10T00:51:43.871Z,-62
2023-05-10T00:56:50.028Z,-62
2023-05-10T01:01:52.500Z,-62
2023-05-10T01:06:54.391Z,-62
2023-05-10T01:11:55.980Z,-62
2023-05-10T01:16:57.179Z,-62
2023-05-10T01:21:58.388Z,-62
2023-05-10T01:26:59.615Z,-64
2023-05-10T01:32:00.835Z,-62
2023-05-10T01:37:02.043Z,-62
2023-05-10T01:42:04.456Z,-62
2023-05-10T01:47:06.366Z,-62
2023-05-10T01:52:07.904Z,-62
2023-05-10T01:57:10.031Z,-64
2023-05-10T02:02:12.742Z,-63
2023-05-10T02:07:13.954Z,-62
2023-05-10T02:12:15.201Z,-62
2023-05-10T02:17:16.474Z,-62
2023-05-10T02:22:17.707Z,-62
2023-05-10T02:27:18.874Z,-63
2023-05-10T02:32:20.078Z,-62
2023-05-10T02:37:21.449Z,-62
2023-05-10T02:42:22.625Z,-63
2023-05-10T02:47:23.805Z,-62
2023-05-10T02:52:25.009Z,-62
2023-05-10T02:57:26.184Z,-62
2023-05-10T03:02:27.777Z,-62
2023-05-10T03:07:29.022Z,-63
2023-05-10T03:12:30.232Z,-62
2023-05-10T03:17:31.691Z,-62
2023-05-10T03:22:32.936Z,-62
2023-05-10T03:27:34.146Z,-62
2023-05-10T03:32:35.834Z,-62
2023-05-10T03:37:37.130Z,-62
2023-05-10T03:42:38.385Z,-62
2023-05-10T03:47:39.575Z,-62
2023-05-10T03:52:40.789Z,-62
2023-05-10T03:57:41.984Z,-62
2023-05-10T04:02:43.941Z,-62
2023-05-10T04:07:46.030Z,-62
2023-05-10T04:12:47.327Z,-63
2023-05-10T04:17:48.623Z,-62
2023-05-10T04:22:49.880Z,-62
2023-05-10T04:27:51.113Z,-63
2023-05-10T04:32:52.450Z,-62
2023-05-10T04:37:53.659Z,-63
2023-05-10T04:42:55.350Z,-62
2023-05-10T04:47:56.551Z,-62
2023-05-10T04:52:57.747Z,-62
2023-05-10T04:57:59.992Z,-62
2023-05-10T05:03:01.307Z,-62
2023-05-10T05:08:02.585Z,-62
2023-05-10T05:13:03.798Z,-63
2023-05-10T05:18:05.128Z,-62
2023-05-10T05:23:06.419Z,-63
2023-05-10T05:28:07.568Z,-65
2023-05-10T05:33:08.815Z,-63
2023-05-10T05:38:10.096Z,-62
2023-05-10T05:43:11.329Z,-63
2023-05-10T05:48:12.631Z,-62
2023-05-10T05:53:13.773Z,-62
2023-05-10T05:58:14.975Z,-62
2023-05-10T06:03:16.422Z,-62
2023-05-10T06:08:17.760Z,-62
2023-05-10T06:13:18.921Z,-62
2023-05-10T06:18:20.100Z,-62
2023-05-10T06:23:21.538Z,-65
2023-05-10T06:28:22.751Z,-62
2023-05-10T06:33:23.934Z,-63
2023-05-10T06:38:25.065Z,-66
2023-05-10T06:43:27.201Z,-66
2023-05-10T06:48:28.598Z,-65
2023-05-10T06:53:29.843Z,-66
2023-05-10T06:58:31.132Z,-66
2023-05-10T07:03:32.384Z,-67
2023-05-10T07:08:33.661Z,-66
2023-05-10T07:13:34.876Z,-65
2023-05-10T07:18:36.111Z,-66
2023-05-10T07:23:37.426Z,-66
2023-05-10T07:28:39.949Z,-65
2023-05-10T07:33:41.241Z,-65
2023-05-10T07:38:42.463Z,-64
2023-05-10T07:43:43.824Z,-65
2023-05-10T07:48:45.026Z,-65
2023-05-10T07:53:46.237Z,-66
2023-05-10T07:58:47.424Z,-65
2023-05-10T08:03:48.994Z,-66
2023-05-10T08:08:51.385Z,-66
2023-05-10T08:13:52.710Z,-65
2023-05-10T08:18:56.107Z,-66
2023-05-10T08:23:57.454Z,-65
2023-05-10T08:28:58.827Z,-65
2023-05-10T08:34:00.010Z,-63
2023-05-10T08:39:01.196Z,-66
2023-05-10T08:44:02.444Z,-65
2023-05-10T08:49:05.175Z,-66
2023-05-10T08:54:06.614Z,-65
2023-05-10T08:59:07.815Z,-66
2023-05-10T09:04:09.074Z,-62
2023-05-10T09:09:10.341Z,-62
2023-05-10T09:14:11.630Z,-66
2023-05-10T09:19:12.889Z,-67
2023-05-10T09:24:14.249Z,-66
2023-05-10T09:29:17.302Z,-66
2023-05-10T09:34:19.086Z,-69
2023-05-10T09:39:20.437Z,-66
2023-05-10T09:44:21.681Z,-66
2023-05-10T09:49:22.884Z,-62
2023-05-10T09:54:25.098Z,-62
2023-05-10T09:59:26.280Z,-65
2023-05-10T10:04:27.600Z,-63
2023-05-10T10:09:28.810Z,-62
2023-05-10T10:14:30.003Z,-62
2023-05-10T10:19:31.280Z,-63
2023-05-10T10:24:32.449Z,-65
2023-05-10T10:29:33.670Z,-62
2023-05-10T10:34:34.954Z,-62
2023-05-10T10:39:37.764Z,-62
2023-05-10T10:44:39.421Z,-62
2023-05-10T10:49:40.613Z,-62
2023-05-10T10:54:42.814Z,-62
2023-05-10T10:59:44.833Z,-63
2023-05-10T11:04:47.547Z,-62
2023-05-10T11:09:48.935Z,-63
2023-05-10T11:14:50.226Z,-62
2023-05-10T11:19:52.141Z,-62
2023-05-10T11:24:53.295Z,-62
2023-05-10T11:29:54.472Z,-63
2023-05-10T11:34:55.819Z,-62
2023-05-10T11:39:57.020Z,-65
2023-05-10T11:44:58.261Z,-65
2023-05-10T11:49:59.525Z,-62
2023-05-10T11:55:01.090Z,-62
2023-05-10T12:00:04.655Z,-62
2023-05-10T12:05:06.226Z,-62
2023-05-10T12:10:07.627Z,-64
2023-05-10T12:15:08.838Z,-66
2023-05-10T12:20:10.042Z,-62
2023-05-10T12:25:11.377Z,-62
2023-05-10T12:30:12.603Z,-63
2023-05-10T12:35:13.822Z,-62
2023-05-10T12:40:15.086Z,-63
2023-05-10T12:45:16.491Z,-62
2023-05-10T12:50:17.996Z,-62
2023-05-10T12:55:19.324Z,-62
2023-05-10T13:00:20.673Z,-62
2023-05-10T13:05:21.890Z,-62
2023-05-10T13:10:24.679Z,-62
2023-05-10T13:15:26.014Z,-62
2023-05-10T13:20:27.892Z,-62
2023-05-10T13:25:29.062Z,-62
2023-05-10T13:30:30.298Z,-62
2023-05-10T13:35:31.487Z,-63
2023-05-10T13:40:32.733Z,-63
2023-05-10T13:45:34.141Z,-64
2023-05-10T13:50:35.301Z,-63
2023-05-10T13:55:37.744Z,-62
2023-05-10T14:00:38.949Z,-62
2023-05-10T14:05:40.219Z,-62
2023-05-10T14:10:41.403Z,-62
2023-05-10T14:15:42.853Z,-63
2023-05-10T14:20:44.073Z,-62
2023-05-10T14:25:45.274Z,-63
2023-05-10T14:30:46.459Z,-62
2023-05-10T14:35:47.736Z,-62
2023-05-10T14:40:49.012Z,-63
2023-05-10T14:45:50.584Z,-62
2023-05-10T14:50:53.443Z,-63
2023-05-10T14:55:54.587Z,-62
2023-05-10T15:00:55.886Z,-64
2023-05-10T15:05:58.561Z,-62
2023-05-10T15:10:59.905Z,-64
2023-05-10T15:16:01.176Z,-63
2023-05-10T15:21:02.485Z,-64
2023-05-10T15:26:03.780Z,-64
2023-05-10T15:31:05.045Z,-64
2023-05-10T15:36:06.448Z,-62
2023-05-10T15:41:07.741Z,-63
2023-05-10T15:46:08.982Z,-62
2023-05-10T15:51:10.194Z,-62
2023-05-10T15:56:11.569Z,-63
2023-05-10T16:01:12.998Z,-65
2023-05-10T16:06:14.244Z,-63
2023-05-10T16:11:15.584Z,-65
2023-05-10T16:16:17.085Z,-62
2023-05-10T16:21:18.363Z,-63
2023-05-10T16:26:19.520Z,-67
2023-05-10T16:31:20.810Z,-63
2023-05-10T16:36:22.292Z,-63
2023-05-10T16:41:23.473Z,-66
2023-05-10T16:46:24.821Z,-67
2023-05-10T16:51:25.981Z,-64
2023-05-10T16:56:27.248Z,-63
2023-05-10T17:01:28.542Z,-63
2023-05-10T17:06:29.838Z,-63
2023-05-10T17:11:31.156Z,-65
2023-05-10T17:16:32.342Z,-63
2023-05-10T17:21:33.608Z,-63
2023-05-10T17:26:34.849Z,-62
2023-05-10T17:31:36.128Z,-62
2023-05-10T17:36:37.461Z,-63
2023-05-10T17:41:38.677Z,-65
2023-05-10T17:46:40.081Z,-66
2023-05-10T17:51:44.015Z,-65
2023-05-10T17:56:46.636Z,-66
2023-05-10T18:01:47.894Z,-66
2023-05-10T18:06:49.340Z,-65
2023-05-10T18:11:50.570Z,-64
2023-05-10T18:16:51.834Z,-65
2023-05-10T18:21:53.048Z,-66
2023-05-10T18:26:54.273Z,-67
2023-05-10T18:31:55.500Z,-67
2023-05-10T18:36:56.716Z,-65
2023-05-10T18:41:57.875Z,-68
2023-05-10T18:46:59.286Z,-63
2023-05-10T18:52:00.532Z,-63
2023-05-10T18:57:01.739Z,-64
2023-05-10T19:02:02.992Z,-67
2023-05-10T19:07:04.256Z,-62
2023-05-10T19:12:05.575Z,-67
2023-05-10T19:17:06.767Z,-63
2023-05-10T19:22:07.960Z,-63
2023-05-10T19:27:09.247Z,-67
2023-05-10T19:32:11.554Z,-63
2023-05-10T19:37:12.797Z,-62
2023-05-10T19:42:13.948Z,-64
2023-05-10T19:47:15.424Z,-64
2023-05-10T19:52:16.653Z,-66
2023-05-10T19:57:18.016Z,-66
2023-05-10T20:02:19.208Z,-66
2023-05-10T20:07:20.454Z,-66
2023-05-10T20:12:21.715Z,-66
2023-05-10T20:17:22.983Z,-67
2023-05-10T20:22:24.273Z,-62
2023-05-10T20:27:25.493Z,-63
2023-05-10T20:32:26.812Z,-62
2023-05-10T20:37:28.170Z,-62
2023-05-10T20:42:29.316Z,-62
2023-05-10T20:47:30.540Z,-65
2023-05-10T20:52:31.811Z,-64
2023-05-10T20:57:32.980Z,-65
2023-05-10T21:02:34.268Z,-65
2023-05-10T21:07:35.566Z,-65
2023-05-10T21:12:36.849Z,-64
2023-05-10T21:17:38.057Z,-65
2023-05-10T21:22:39.265Z,-65
2023-05-10T21:27:40.432Z,-63
2023-05-10T21:32:41.647Z,-62
2023-05-10T21:37:42.840Z,-63
2023-05-10T21:42:44.215Z,-63
2023-05-10T21:47:45.401Z,-63
2023-05-10T21:52:46.550Z,-62
2023-05-10T21:57:47.723Z,-62
2023-05-10T22:02:49.002Z,-62
2023-05-10T22:07:50.376Z,-62
2023-05-10T22:12:51.813Z,-62
2023-05-10T22:17:53.306Z,-62
2023-05-10T22:22:54.519Z,-62
2023-05-10T22:27:55.683Z,-62
2023-05-10T22:32:56.927Z,-62
2023-05-10T22:37:58.139Z,-62
2023-05-10T22:42:59.410Z,-62
2023-05-10T22:48:00.638Z,-62
2023-05-10T22:53:01.845Z,-62
2023-05-10T22:58:03.046Z,-62
2023-05-10T23:03:04.295Z,-62
2023-05-10T23:08:05.663Z,-62
2023-05-10T23:13:07.754Z,-62
2023-05-10T23:18:09.694Z,-62
2023-05-10T23:23:11.122Z,-62
2023-05-10T23:28:12.414Z,-62
2023-05-10T23:33:14.211Z,-62
2023-05-10T23:38:15.411Z,-62
2023-05-10T23:43:17.553Z,-62
2023-05-10T23:48:18.880Z,-62
2023-05-10T23:53:20.183Z,-62
2023-05-10T23:58:21.985Z,-62
